createdAt,value
2023-04-15T00:01:55.532Z,0
2023-04-15T00:07:01.696Z,0
2023-04-15T00:12:07.711Z,0
2023-04-15T00:17:13.787Z,0
2023-04-15T00:22:19.880Z,0
2023-04-15T00:27:25.966Z,0
2023-04-15T00:32:32.064Z,0
2023-04-15T00:37:38.157Z,0
2023-04-15T00:42:44.250Z,0
2023-04-15T00:47:50.325Z,0
2023-04-15T00:52:56.409Z,0
2023-04-15T00:58:02.557Z,0
2023-04-15T01:03:08.588Z,0
2023-04-15T01:08:14.678Z,0
2023-04-15T01:13:19.808Z,0
2023-04-15T01:18:24.912Z,0
2023-04-15T01:23:31.009Z,0
2023-04-15T01:28:37.096Z,0
2023-04-15T01:33:43.181Z,0
2023-04-15T01:38:49.257Z,0
2023-04-15T01:43:55.403Z,0
2023-04-15T01:49:01.423Z,0
2023-04-15T01:54:07.530Z,0
2023-04-15T01:59:13.624Z,0
2023-04-15T02:04:19.713Z,0
2023-04-15T02:09:25.792Z,0
2023-04-15T02:14:30.910Z,0
2023-04-15T02:19:36.995Z,0
2023-04-15T02:24:43.090Z,0
2023-04-15T02:29:49.192Z,0
2023-04-15T02:34:55.277Z,0
2023-04-15T02:40:01.362Z,0
2023-04-15T02:45:07.454Z,0
2023-04-15T02:50:13.596Z,0
2023-04-15T02:55:19.631Z,0
2023-04-15T03:00:25.791Z,0
2023-04-15T03:05:31.803Z,0
2023-04-15T03:10:37.960Z,0
2023-04-15T03:15:43.967Z,0
2023-04-15T03:20:50.063Z,0
2023-04-15T03:25:56.153Z,0
2023-04-15T03:31:02.244Z,0
2023-04-15T03:36:08.337Z,0
2023-04-15T03:41:14.418Z,0
2023-04-15T03:46:20.507Z,0
2023-04-15T03:51:26.599Z,0
2023-04-15T03:56:32.696Z,0
2023-04-15T04:01:38.780Z,0
2023-04-15T04:06:44.874Z,0
2023-04-15T04:11:50.968Z,0
2023-04-15T04:16:57.041Z,0
2023-04-15T04:22:03.207Z,0
2023-04-15T04:27:09.347Z,0
2023-04-15T04:32:15.501Z,4
2023-04-15T04:37:21.646Z,4
2023-04-15T04:42:27.803Z,8
2023-04-15T04:47:33.945Z,12
2023-04-15T04:52:40.227Z,12
2023-04-15T04:57:46.247Z,12
2023-04-15T05:02:52.445Z,16
2023-04-15T05:07:58.546Z,20
2023-04-15T05:13:04.751Z,24
2023-04-15T05:18:10.889Z,24
2023-04-15T05:23:17.013Z,20
2023-04-15T05:28:23.284Z,20
2023-04-15T05:33:29.540Z,20
2023-04-15T05:38:35.807Z,24
2023-04-15T05:43:42.102Z,32
2023-04-15T05:48:48.363Z,40
2023-04-15T05:53:54.617Z,52
2023-04-15T05:59:00.857Z,68
2023-04-15T06:04:07.172Z,76
2023-04-15T06:09:13.459Z,76
2023-04-15T06:14:19.646Z,72
2023-04-15T06:19:25.927Z,64
2023-04-15T06:24:32.180Z,72
2023-04-15T06:29:37.405Z,72
2023-04-15T06:34:43.490Z,84
2023-04-15T06:39:49.643Z,100
2023-04-15T06:44:55.710Z,104
2023-04-15T06:50:01.754Z,124
2023-04-15T06:55:07.885Z,140
2023-04-15T07:00:13.955Z,152
2023-04-15T07:05:20.100Z,144
2023-04-15T07:10:26.120Z,144
2023-04-15T07:15:32.352Z,140
2023-04-15T07:20:38.404Z,112
2023-04-15T07:25:44.548Z,116
2023-04-15T07:30:50.475Z,88
2023-04-15T07:35:56.632Z,80
2023-04-15T07:41:02.804Z,72
2023-04-15T07:46:08.748Z,80
2023-04-15T07:51:14.927Z,72
2023-04-15T07:56:21.024Z,68
2023-04-15T08:01:27.146Z,60
2023-04-15T08:06:33.247Z,60
2023-04-15T08:11:39.249Z,60
2023-04-15T08:16:45.411Z,60
2023-04-15T08:21:51.506Z,64
2023-04-15T08:26:57.456Z,68
2023-04-15T08:32:03.629Z,72
2023-04-15T08:37:09.694Z,72
2023-04-15T08:42:15.836Z,76
2023-04-15T08:47:21.999Z,68
2023-04-15T08:52:28.232Z,64
2023-04-15T08:57:34.306Z,80
2023-04-15T09:02:40.573Z,72
2023-04-15T09:07:46.611Z,72
2023-04-15T09:12:52.833Z,80
2023-04-15T09:17:58.961Z,84
2023-04-15T09:23:05.067Z,88
2023-04-15T09:28:11.352Z,92
2023-04-15T09:33:17.408Z,80
2023-04-15T09:38:23.516Z,84
2023-04-15T09:43:29.942Z,72
2023-04-15T09:48:36.199Z,84
2023-04-15T09:53:42.436Z,92
2023-04-15T09:58:48.633Z,60
2023-04-15T10:03:54.940Z,68
2023-04-15T10:09:01.156Z,68
2023-04-15T10:14:07.351Z,64
2023-04-15T10:19:13.616Z,60
2023-04-15T10:24:19.908Z,64
2023-04-15T10:29:26.179Z,76
2023-04-15T10:34:32.461Z,96
2023-04-15T10:39:38.684Z,112
2023-04-15T10:44:44.945Z,108
2023-04-15T10:49:51.511Z,120
2023-04-15T10:54:57.893Z,116
2023-04-15T11:00:04.360Z,96
2023-04-15T11:05:10.861Z,96
2023-04-15T11:10:17.321Z,68
2023-04-15T11:15:23.836Z,76
2023-04-15T11:20:30.318Z,64
2023-04-15T11:25:36.703Z,68
2023-04-15T11:30:43.362Z,72
2023-04-15T11:35:49.641Z,56
2023-04-15T11:40:56.116Z,56
2023-04-15T11:46:02.584Z,68
2023-04-15T11:51:09.060Z,64
2023-04-15T11:56:16.066Z,72
2023-04-15T12:01:23.084Z,92
2023-04-15T12:06:30.109Z,92
2023-04-15T12:11:37.080Z,108
2023-04-15T12:16:44.088Z,80
2023-04-15T12:21:49.881Z,84
2023-04-15T12:26:56.052Z,144
2023-04-15T12:32:02.206Z,112
2023-04-15T12:37:08.372Z,148
2023-04-15T12:42:14.490Z,136
2023-04-15T12:47:20.632Z,100
2023-04-15T12:52:26.802Z,152
2023-04-15T12:57:32.944Z,156
2023-04-15T13:02:39.093Z,144
2023-04-15T13:07:45.244Z,152
2023-04-15T13:12:51.408Z,136
2023-04-15T13:17:56.563Z,100
2023-04-15T13:23:02.646Z,108
2023-04-15T13:28:08.730Z,80
2023-04-15T13:33:14.839Z,112
2023-04-15T13:38:20.914Z,80
2023-04-15T13:43:26.997Z,56
2023-04-15T13:48:33.084Z,64
2023-04-15T13:53:39.182Z,84
2023-04-15T13:58:45.278Z,64
2023-04-15T14:03:51.350Z,48
2023-04-15T14:08:57.448Z,28
2023-04-15T14:14:03.534Z,20
2023-04-15T14:19:09.627Z,20
2023-04-15T14:24:15.712Z,36
2023-04-15T14:29:21.803Z,36
2023-04-15T14:34:27.890Z,36
2023-04-15T14:39:34.084Z,40
2023-04-15T14:44:40.130Z,68
2023-04-15T14:49:46.164Z,52
2023-04-15T14:54:52.249Z,32
2023-04-15T14:59:58.348Z,28
2023-04-15T15:05:04.435Z,28
2023-04-15T15:10:10.521Z,36
2023-04-15T15:15:15.632Z,36
2023-04-15T15:20:21.725Z,32
2023-04-15T15:25:27.814Z,28
2023-04-15T15:30:33.909Z,20
2023-04-15T15:35:39.991Z,20
2023-04-15T15:40:46.082Z,16
2023-04-15T15:45:52.161Z,16
2023-04-15T15:50:58.247Z,16
2023-04-15T15:56:03.361Z,24
2023-04-15T16:01:09.450Z,16
2023-04-15T16:06:15.543Z,12
2023-04-15T16:11:21.620Z,12
2023-04-15T16:16:27.720Z,4
2023-04-15T16:21:33.804Z,4
2023-04-15T16:26:39.899Z,8
2023-04-15T16:31:45.987Z,12
2023-04-15T16:36:52.069Z,8
2023-04-15T16:41:58.161Z,8
2023-04-15T16:47:04.259Z,8
2023-04-15T16:52:10.344Z,16
2023-04-15T16:57:16.440Z,16
2023-04-15T17:02:22.519Z,20
2023-04-15T17:07:28.611Z,16
2023-04-15T17:12:34.698Z,12
2023-04-15T17:17:40.784Z,12
2023-04-15T17:22:46.877Z,12
2023-04-15T17:27:52.964Z,8
2023-04-15T17:32:59.051Z,4
2023-04-15T17:38:05.151Z,4
2023-04-15T17:43:11.235Z,0
2023-04-15T17:48:17.323Z,4
2023-04-15T17:53:23.414Z,0
2023-04-15T17:58:29.495Z,0
2023-04-15T18:03:35.586Z,0
2023-04-15T18:08:41.670Z,0
2023-04-15T18:13:47.767Z,0
2023-04-15T18:18:53.856Z,0
2023-04-15T18:23:59.948Z,0
2023-04-15T18:29:06.051Z,0
2023-04-15T18:34:12.120Z,0
2023-04-15T18:39:18.225Z,0
2023-04-15T18:44:24.308Z,0
2023-04-15T18:49:30.395Z,0
2023-04-15T18:54:36.485Z,0
2023-04-15T18:59:42.581Z,0
2023-04-15T19:04:48.736Z,0
2023-04-15T19:09:54.883Z,0
2023-04-15T19:15:01.030Z,0
2023-04-15T19:20:07.173Z,0
2023-04-15T19:25:13.332Z,0
2023-04-15T19:30:19.488Z,0
2023-04-15T19:35:25.640Z,0
2023-04-15T19:40:31.790Z,0
2023-04-15T19:45:37.958Z,0
2023-04-15T19:50:44.095Z,0
2023-04-15T19:55:50.239Z,0
2023-04-15T20:00:56.390Z,0
2023-04-15T20:06:02.549Z,0
2023-04-15T20:11:08.820Z,0
2023-04-15T20:16:14.205Z,0
2023-04-15T20:21:20.468Z,0
2023-04-15T20:26:26.716Z,0
2023-04-15T20:31:32.981Z,0
2023-04-15T20:36:39.244Z,0
2023-04-15T20:41:45.512Z,0
2023-04-15T20:46:51.766Z,0
2023-04-15T20:51:58.047Z,0
2023-04-15T20:57:04.391Z,0
2023-04-15T21:02:10.577Z,0
2023-04-15T21:07:16.834Z,0
2023-04-15T21:12:23.099Z,0
2023-04-15T21:17:29.360Z,0
2023-04-15T21:22:35.637Z,0
2023-04-15T21:27:41.906Z,0
2023-04-15T21:32:48.177Z,0
2023-04-15T21:37:54.420Z,0
2023-04-15T21:42:59.659Z,0
2023-04-15T21:48:05.757Z,0
2023-04-15T21:53:11.870Z,0
2023-04-15T21:58:17.922Z,0
2023-04-15T22:03:24.013Z,0
2023-04-15T22:08:30.107Z,0
2023-04-15T22:13:36.178Z,0
2023-04-15T22:18:42.284Z,0
2023-04-15T22:23:48.385Z,0
2023-04-15T22:28:54.489Z,0
2023-04-15T22:34:00.551Z,0
2023-04-15T22:39:06.646Z,0
2023-04-15T22:44:11.749Z,0
2023-04-15T22:49:17.829Z,0
2023-04-15T22:54:23.923Z,0
2023-04-15T22:59:30.007Z,0
2023-04-15T23:04:36.096Z,0
2023-04-15T23:09:42.184Z,0
2023-04-15T23:14:48.277Z,0
2023-04-15T23:19:54.381Z,0
2023-04-15T23:25:00.460Z,0
2023-04-15T23:30:06.557Z,0
2023-04-15T23:35:12.632Z,0
2023-04-15T23:40:18.727Z,0
2023-04-15T23:45:24.819Z,0
2023-04-15T23:50:30.903Z,0
2023-04-15T23:55:36.996Z,0
